Tiempo atmosférico en la estación meteorológica de Es Mercadal, Illes Balears (77 m.)



Fecha
DESCASC
Temp. máxima en grados centígrados (hora)
DESCASC
Temp. mínima en grados centígrados (hora)
DESCASC
Temp. media en grados centígrados
DESCASC
Racha de viento máxima en m/sg (hora)
DESCASC
Velocidad máxima media en intervalos de 10 minutos(hora)
DESCASC
Precipitaciones diarias en mm
DESCASC
Precipitaciones de 00:00 a 06:00 en mm
DESCASC
Precipitaciones de 06:00 a 12:00 en mm
DESCASC
Precipitaciones de 12:00 a 18:00 en mm
DESCASC
Precipitaciones de 18:00 a 24:00 en mm
DESCASC
03-12-2020 14.5 (15:10) 8.8 (08:10) 11.7 15.83 (23:10) 10.28 (23:10) 0 0 0 0 0
02-12-2020 11.2 (00:50) 8.9 (18:30) 10 16.67 (18:20) 10 (19:40) 3.4 2.8 0.6 0 0
01-12-2020 16.3 (12:40) 10.9 (22:50) 13.6 6.11 (15:00) 3.89 (13:40) 6.4 0 0 0 6.4
30-11-2020 19.3 (12:00) 10.6 (00:00) 14.9 3.89 (14:20) 2.5 (13:50) 0 0 0 0 0
29-11-2020 16.7 (11:40) 11.8 (00:00) 14.3 8.61 (09:20) 5.56 (09:50) 1.2 0.2 0.8 0.2 0
28-11-2020 17.4 (03:00) 12.5 (00:00) 14.9 15.28 (13:30) 7.78 (13:40) 26.2 0.2 15.2 9.2 1.6
27-11-2020 18.4 (14:10) 15.7 (00:00) 17 10.83 (09:30) 6.94 (13:30) 0 0 0 0 0
26-11-2020 19.9 (13:20) 14.7 (00:00) 17.3 12.22 (10:00) 8.33 (12:30) 0 0 0 0 0
25-11-2020 19.1 (14:50) 10.6 (00:00) 14.9 10.83 (22:10) 6.67 (22:10) 0 0 0 0 0
24-11-2020 17.7 (14:00) 9.9 (00:00) 13.8 8.61 (13:30) 6.67 (13:10) 0 0 0 0 0
23-11-2020 16 (13:20) 9.2 (00:00) 12.6 6.11 (10:10) 4.17 (10:10) 0 0 0 0 0
22-11-2020 15.5 (12:10) 10.2 (00:00) 12.8 11.94 (10:30) 7.5 (14:10) 0 0 0 0 0
21-11-2020 16 (14:20) 11.8 (00:00) 13.9 15.28 (04:30) 9.17 (04:20) 0 0 0 0 0
20-11-2020 15.5 (00:00) 11.9 (00:00) 13.7 21.11 (10:40) 13.61 (10:40) 0 0 0 0 0
19-11-2020 19.5 (14:00) 11.7 (00:00) 15.6 13.33 (23:59) 8.06 (23:40) 0.2 0 0.2 0 0
18-11-2020 19.4 (11:50) 11.5 (00:00) 15.4 5.28 (12:40) 3.06 (13:40) 0 0 0 0 0
17-11-2020 17.4 (12:20) 12.5 (00:00) 14.9 11.11 (10:50) 6.94 (02:10) 0 0 0 0 0
16-11-2020 19.3 (06:40) 15.4 (00:00) 17.3 12.22 (12:50) 7.78 (12:50) 0 0 0 0 0
15-11-2020 21.1 (13:50) 16.1 (00:00) 18.6 10.28 (19:40) 7.22 (19:30) 0 0 0 0 0
14-11-2020 23 (13:00) 15.8 (00:00) 19.4 6.67 (10:40) 3.61 (10:40) 0 0 0 0 0
13-11-2020 22.3 (13:00) 14 (00:00) 18.1 6.39 (16:00) 4.44 (16:00) 0 0 0 0 0
12-11-2020 19.9 (15:50) 12.8 (00:00) 16.3 4.72 (13:50) 3.06 (14:00) 2.4 0 2.4 0 0
11-11-2020 19.4 (13:50) 13 (00:00) 16.2 5 (11:00) 3.61 (10:00) 0 0 0 0 0
10-11-2020 18.9 (11:10) 14.5 (00:00) 16.7 7.22 (12:20) 5 (14:00) 0 0 0 0 0
09-11-2020 22.3 (13:20) 14.4 (00:00) 18.3 3.89 (14:10) 2.78 (15:40) 0.4 0.2 0.2 0 0
08-11-2020 23.9 (14:20) 15.1 (00:00) 19.5 5.56 (13:20) 3.89 (01:10) 0 0 0 0 0
07-11-2020 21.7 (11:10) 17.5 (00:00) 19.6 13.33 (05:10) 8.89 (10:00) 0.6 0 0 0.6 0
06-11-2020 21.2 (12:40) 18.4 (00:00) 19.8 15.83 (11:20) 10 (12:10) 0 0 0 0 0
05-11-2020 20.6 (12:00) 15.6 (00:00) 18.1 13.33 (23:59) 8.06 (23:50) 0 0 0 0 0

Gráficas

Temp. máximas Temp. mínimas Temp. medias Precipitaciones Rachas de viento máximas Velocidades máximas media en intervalos de 10 minutos

Datos horarios

Fecha y hora oficial Temperatura (ºC) Velocidad del viento (km/h) Dirección del viento Racha (km/h) Dirección de racha Precipitación (mm) Presión (hPa) Tendencia (hPa) Humedad (%)
2020-12-04 23:00:00 9.8 5 Noroeste 17 Noroeste 0 -- -- 82
2020-12-04 22:00:00 10 0 Calma 8 Norte 0 -- -- 82
2020-12-04 21:00:00 10.8 6 Norte 14 Norte 0 -- -- 76
2020-12-04 20:00:00 11.4 6 Sudoeste 10 Sudoeste 0 -- -- 72
2020-12-04 19:00:00 11.7 4 Sudoeste 21 Sudoeste 0 -- -- 71
2020-12-04 18:00:00 11.7 8 Oeste 21 Sudoeste 0 -- -- 75
2020-12-04 17:00:00 12.3 15 Sudoeste 26 Sudoeste 0 -- -- 74
2020-12-04 16:00:00 12.2 15 Sudoeste 48 Oeste 0.2 -- -- 82
2020-12-04 15:00:00 12 27 Oeste 56 Sudoeste 0.4 -- -- 79
2020-12-04 14:00:00 15.4 25 Oeste 68 Sudoeste 0 -- -- 57
2020-12-04 13:00:00 16.1 39 Sudoeste 58 Sudoeste 0 -- -- 53
2020-12-04 12:00:00 16 35 Sudoeste 66 Sudoeste 0 -- -- 56
2020-12-04 11:00:00 15.4 34 Sudoeste 62 Sudoeste 0 -- -- 58
2020-12-04 10:00:00 14.7 32 Sudoeste 52 Sudoeste 0 -- -- 55
2020-12-04 09:00:00 14.5 39 Sudoeste 63 Sudoeste 0 -- -- 57
2020-12-04 08:00:00 13.7 31 Sudoeste 63 Sudoeste 0 -- -- 58
2020-12-04 07:00:00 14.2 39 Sudoeste 62 Sudoeste 0 -- -- 53
2020-12-04 06:00:00 14.2 31 Sudoeste 50 Sudoeste 0 -- -- 57
2020-12-04 05:00:00 14.2 39 Sudoeste 56 Sudoeste 0 -- -- 56
2020-12-04 04:00:00 14.3 36 Sudoeste 59 Sudoeste 0 -- -- 59
2020-12-04 03:00:00 14.3 38 Sudoeste 56 Sudoeste 0 -- -- 59
2020-12-04 02:00:00 14.2 33 Sudoeste 59 Sudoeste 0 -- -- 63
2020-12-04 01:00:00 14.3 32 Sudoeste 58 Sudoeste 0 -- -- 65
2020-12-04 00:00:00 14 30 Sudoeste 57 Sudoeste 0 -- -- 62
2020-12-03 23:00:00 13.6 32 Sudoeste 49 Sudoeste 0 -- -- 66
2020-12-03 22:00:00 13.5 27 Sudoeste 40 Sudoeste 0 -- -- 68
2020-12-03 21:00:00 13.2 20 Sudoeste 32 Sudoeste 0 -- -- 67
2020-12-03 20:00:00 12.3 12 Sudoeste 19 Sur 0 -- -- 68
2020-12-03 19:00:00 11.1 7 Sudoeste 18 Sudoeste 0 -- -- 65
2020-12-03 18:00:00 11.9 14 Sudoeste 31 Sudoeste 0 -- -- 60
2020-12-03 17:00:00 12.6 4 Sudoeste 22 Sudoeste 0 -- -- 65
2020-12-03 16:00:00 13 15 Sudoeste 31 Sudoeste 0 -- -- 58
2020-12-03 15:00:00 13.3 14 Sudoeste 30 Oeste 0 -- -- 60
2020-12-03 14:00:00 13.9 16 Oeste 34 Oeste 0 -- -- 57
2020-12-03 13:00:00 14.3 16 Oeste 33 Oeste 0 -- -- 57
2020-12-03 12:00:00 13.4 20 Oeste 33 Oeste 0 -- -- 60
2020-12-03 11:00:00 13.7 16 Oeste 28 Oeste 0 -- -- 60
2020-12-03 10:00:00 12.3 8 Sur 13 Sur 0 -- -- 76
2020-12-03 09:00:00 9.7 3 Sur 9 Sur 0 -- -- 83
2020-12-03 08:00:00 8.9 7 Sur 9 Sur 0 -- -- 79
2020-12-03 07:00:00 10 12 Sudoeste 16 Sudoeste 0 -- -- 76
2020-12-03 06:00:00 10.8 8 Norte 16 Nordeste 0 -- -- 72
2020-12-03 05:00:00 10.7 10 Norte 17 Norte 0 -- -- 71
2020-12-03 04:00:00 10.7 8 Norte 23 Norte 0 -- -- 69
2020-12-03 03:00:00 10.9 12 Norte 34 Norte 0 -- -- 68
2020-12-03 02:00:00 11.2 19 Norte 41 Norte 0 -- -- 69
2020-12-03 01:00:00 11.4 22 Norte 45 Norte 0 -- -- 65
2020-12-03 00:00:00 11 32 Norte 46 Norte 0 -- -- 54
2020-12-02 23:00:00 10.6 25 Norte 45 Norte 0 -- -- 58
2020-12-02 22:00:00 10.5 22 Norte 46 Norte 0 -- -- 65
2020-12-02 21:00:00 10.3 26 Norte 41 Norte 0 -- -- 65
2020-12-02 20:00:00 9.3 22 Norte 52 Norte 0 -- -- 73
2020-12-02 19:00:00 9.2 28 Norte 60 Norte 0 -- -- 75
2020-12-02 18:00:00 10.4 36 Norte 56 Norte 0 -- -- 64
2020-12-02 17:00:00 10.8 29 Norte 55 Norte 0 -- -- 60
2020-12-02 16:00:00 10.9 33 Norte 51 Norte 0 -- -- 55
2020-12-02 15:00:00 11 28 Norte 49 Norte 0 -- -- 61
2020-12-02 14:00:00 11.2 30 Norte 51 Norte 0 -- -- 64
2020-12-02 13:00:00 10.8 26 Norte 50 Norte 0 -- -- 67
2020-12-02 12:00:00 11.1 31 Norte 50 Norte 0 -- -- 67
2020-12-02 11:00:00 10.3 23 Norte 40 Norte 0.4 -- -- 73
2020-12-02 10:00:00 10.4 19 Norte 41 Norte 0.2 -- -- 70
2020-12-02 09:00:00 10 25 Norte 43 Norte 0 -- -- 73
2020-12-02 08:00:00 10.6 27 Norte 45 Norte 0 -- -- 67
2020-12-02 07:00:00 10.3 29 Norte 46 Norte 0 -- -- 71
2020-12-02 06:00:00 10.4 22 Norte 39 Norte 0 -- -- 73
2020-12-02 05:00:00 10 26 Norte 40 Norte 0.2 -- -- 78
2020-12-02 04:00:00 10.7 20 Norte 29 Norte 0 -- -- 82
2020-12-02 03:00:00 9.9 10 Nordeste 15 Norte 0.4 -- -- 91
2020-12-02 02:00:00 10.6 5 Norte 11 Nordeste 1.2 -- -- 92
2020-12-02 01:00:00 11.1 10 Nordeste 17 Nordeste 1 -- -- 92
2020-12-02 00:00:00 11 5 Norte 9 Noroeste 2.6 -- -- 91
2020-12-01 23:00:00 10.9 0 Calma 13 Norte 3.8 -- -- 88
2020-12-01 22:00:00 12.1 3 Sur 5 Sur 0 -- -- 78
2020-12-01 21:00:00 12.6 0 Calma 10 Sudeste 0 -- -- 72
2020-12-01 20:00:00 12.8 5 Sudeste 9 Sudeste 0 -- -- 72
2020-12-01 19:00:00 13 3 Este 14 Este 0 -- -- 70
2020-12-01 18:00:00 13.1 6 Este 10 Este 0 -- -- 68
2020-12-01 17:00:00 14 5 Nordeste 13 Nordeste 0 -- -- 73
2020-12-01 16:00:00 14.9 9 Norte 21 Norte 0 -- -- 66
2020-12-01 15:00:00 15.5 14 Norte 22 Norte 0 -- -- 70
2020-12-01 14:00:00 15.6 14 Norte 21 Norte 0 -- -- 77
2020-12-01 13:00:00 16.1 13 Norte 19 Norte 0 -- -- 80
2020-12-01 12:00:00 15.9 7 Norte 16 Nordeste 0 -- -- 87
2020-12-01 11:00:00 15.2 8 Norte 14 Norte 0 -- -- 91
2020-12-01 10:00:00 15.3 3 Nordeste 5 Nordeste 0 -- -- 92
2020-12-01 09:00:00 13.5 0 Calma 4 Sudoeste 0 -- -- 93
2020-12-01 08:00:00 12.2 0 Calma 3 Sudoeste 0 -- -- 93
2020-12-01 07:00:00 12.2 2 Sur 5 Sudoeste 0 -- -- 93
2020-12-01 06:00:00 12 2 Sudoeste 6 Oeste 0 -- -- 92
2020-12-01 05:00:00 12.6 0 Calma 4 Sudoeste 0 -- -- 90
2020-12-01 04:00:00 12.6 0 Calma 3 Sudoeste 0 -- -- 89
2020-12-01 03:00:00 12.9 0 Calma 4 Sudoeste 0 -- -- 90
2020-12-01 02:00:00 12.4 3 Oeste 5 Oeste 0 -- -- 90
2020-12-01 01:00:00 13 2 Sur 6 Sudoeste 0 -- -- 89
2020-12-01 00:00:00 12.7 4 Sudoeste 7 Sudoeste 0 -- -- 87
2020-11-30 23:00:00 12.9 6 Sudoeste 8 Sudoeste 0 -- -- 84
2020-11-30 22:00:00 12.5 4 Sudoeste 5 Sudoeste 0 -- -- 80
2020-11-30 21:00:00 12.4 3 Sudoeste 8 Sur 0 -- -- 80
2020-11-30 20:00:00 13 5 Sur 7 Sudoeste 0 -- -- 82
2020-11-30 19:00:00 13.1 3 Sudoeste 5 Sudoeste 0 -- -- 83
2020-11-30 18:00:00 13.8 -- -- -- -- 0 -- -- 77
2020-11-30 17:00:00 16.5 3 Noroeste 12 Norte 0 -- -- 69
2020-11-30 16:00:00 17.3 7 Norte 13 Norte 0 -- -- 66
2020-11-30 15:00:00 16.6 6 Norte 14 Norte 0 -- -- 66
2020-11-30 14:00:00 18 9 Norte 14 Nordeste 0 -- -- 61
2020-11-30 13:00:00 19 5 Nordeste 11 Norte 0 -- -- 57
2020-11-30 12:00:00 19.3 2 Sudeste 9 Sudeste 0 -- -- 63
2020-11-30 11:00:00 18 4 Sudeste 9 Sur 0 -- -- 67
2020-11-30 10:00:00 15.6 5 Sur 8 Sur 0 -- -- 80
2020-11-30 09:00:00 12.5 3 Sudoeste 8 Sur 0 -- -- 86
2020-11-30 08:00:00 11.3 6 Sudoeste 8 Sudoeste 0 -- -- 87
2020-11-30 07:00:00 11.4 2 Sudoeste 5 Oeste 0 -- -- 86
2020-11-30 06:00:00 11.6 0 Calma 4 Oeste 0 -- -- 89
2020-11-30 05:00:00 11.5 0 Calma 3 Sudoeste 0 -- -- 92
2020-11-30 04:00:00 11.8 0 Calma 3 Oeste 0 -- -- 92
2020-11-30 03:00:00 11.7 2 Oeste 3 Oeste 0 -- -- 92
2020-11-30 02:00:00 12.2 0 Calma 3 Nordeste 0 -- -- 93
2020-11-30 01:00:00 12 0 Calma 3 Oeste 0 -- -- 92
2020-11-30 00:00:00 11.8 3 Oeste 4 Oeste 0 -- -- 92
2020-11-29 23:00:00 12.4 0 Calma 4 Noroeste 0 -- -- 90
2020-11-29 22:00:00 12.3 3 Norte 6 Nordeste 0 -- -- 90
2020-11-29 21:00:00 12.8 2 Noroeste 6 Norte 0 -- -- 88
2020-11-29 20:00:00 13.7 5 Nordeste 13 Norte 0 -- -- 85
2020-11-29 19:00:00 14.7 9 Norte 19 Norte 0 -- -- 81
2020-11-29 18:00:00 15.1 11 Norte 22 Nordeste 0 -- -- 81
2020-11-29 17:00:00 15.4 12 Norte 28 Nordeste 0 -- -- 81
2020-11-29 16:00:00 15.9 17 Nordeste 26 Nordeste 0 -- -- 79
2020-11-29 15:00:00 16.1 13 Norte 28 Nordeste 0 -- -- 79
2020-11-29 14:00:00 16 17 Nordeste 30 Nordeste 0 -- -- 82
2020-11-29 13:00:00 15.5 14 Norte 29 Nordeste 0.2 -- -- 85
2020-11-29 12:00:00 15 10 Nordeste 28 Norte 0.8 -- -- 84
2020-11-29 11:00:00 16.1 18 Nordeste 28 Norte 0 -- -- 79
2020-11-29 10:00:00 15.9 18 Nordeste 31 Norte 0 -- -- 79
2020-11-29 09:00:00 15.4 18 Norte 28 Nordeste 0 -- -- 84
2020-11-29 08:00:00 14.1 7 Nordeste 20 Norte 0 -- -- 91
2020-11-29 07:00:00 13.6 8 Norte 21 Norte 0 -- -- 91
2020-11-29 06:00:00 13.5 13 Norte 21 Norte 0 -- -- 91
2020-11-29 05:00:00 13.6 13 Norte 26 Norte 0 -- -- 90
2020-11-29 04:00:00 13.6 13 Norte 25 Norte -- -- -- 91
2020-11-29 03:00:00 12.2 3 Nordeste 8 Norte 0 -- -- 93
2020-11-29 02:00:00 13 4 Noroeste 8 Norte 0 -- -- 92
2020-11-29 01:00:00 13.3 2 Norte 18 Noroeste 0.2 -- -- 91
2020-11-29 00:00:00 13.3 6 Noroeste 22 Nordeste 1.4 -- -- 88
2020-11-28 23:00:00 14.1 5 Norte 14 Norte 0 -- -- 84
2020-11-28 22:00:00 14.4 10 Nordeste 16 Nordeste 0 -- -- 83
2020-11-28 21:00:00 13.4 5 Este 17 Nordeste 0 -- -- 85
2020-11-28 20:00:00 13.6 9 Nordeste 26 Nordeste 0.2 -- -- 84
2020-11-28 19:00:00 13.9 10 Nordeste 22 Nordeste 0 -- -- 82
2020-11-28 18:00:00 14 7 Nordeste 14 Nordeste 0 -- -- 83
2020-11-28 17:00:00 14.3 11 Nordeste 25 Nordeste 0 -- -- 81
2020-11-28 16:00:00 15 15 Nordeste 32 Nordeste 0 -- -- 84
2020-11-28 15:00:00 14.5 20 Nordeste 38 Nordeste 0 -- -- 89
2020-11-28 14:00:00 14 12 Nordeste 55 Nordeste 8.8 -- -- 93
2020-11-28 13:00:00 13.5 9 Norte 18 Norte 0.4 -- -- 93
2020-11-28 12:00:00 13.3 15 Nordeste 36 Nordeste 8 -- -- 91
2020-11-28 11:00:00 14.1 18 Nordeste 36 Norte 0.6 -- -- 87
2020-11-28 10:00:00 14.4 15 Norte 24 Nordeste 0 -- -- 87
2020-11-28 09:00:00 13.3 8 Norte 27 Noroeste 1.4 -- -- 90
2020-11-28 08:00:00 13.3 11 Norte 22 Oeste 0.6 -- -- 91
2020-11-28 07:00:00 12.9 6 Oeste 28 Oeste 4.6 -- -- 91
2020-11-28 06:00:00 13.3 18 Sudoeste 46 Oeste 0.2 -- -- 87
2020-11-28 05:00:00 15.5 16 Sudoeste 37 Oeste 0 -- -- 77
2020-11-28 04:00:00 17.2 17 Sudeste 29 Sudeste 0 -- -- 82
2020-11-28 03:00:00 17.4 17 Este 37 Sudeste 0 -- -- 82
2020-11-28 02:00:00 17.2 17 Este 30 Este 0 -- -- 83
2020-11-28 01:00:00 17.2 15 Este 40 Este 0 -- -- 84
2020-11-28 00:00:00 17.1 17 Este 37 Este 0 -- -- 84
2020-11-27 23:00:00 16.9 17 Este 34 Este 0 -- -- 82
2020-11-27 22:00:00 16.8 17 Este 30 Este 0 -- -- 83
2020-11-27 21:00:00 16.8 18 Este 34 Sudeste 0 -- -- 83
2020-11-27 20:00:00 17 20 Este 37 Este 0 -- -- 81
2020-11-27 19:00:00 16.9 17 Este 32 Este 0 -- -- 81
2020-11-27 18:00:00 17 18 Este 33 Este 0 -- -- 79
2020-11-27 17:00:00 17.1 16 Este 33 Este 0 -- -- 74
2020-11-27 16:00:00 17.6 15 Este 27 Este 0 -- -- 73
2020-11-27 15:00:00 18 17 Este 34 Este 0 -- -- 73
2020-11-27 14:00:00 18.2 15 Sudeste 38 Este 0 -- -- 73
2020-11-27 13:00:00 17.9 18 Este 31 Este 0 -- -- 78
2020-11-27 12:00:00 17.7 17 Este 34 Este 0 -- -- 76
2020-11-27 11:00:00 17.6 22 Este 38 Este 0 -- -- 74
2020-11-27 10:00:00 17.3 15 Este 39 Sudeste 0 -- -- 76
2020-11-27 09:00:00 16.5 15 Este 31 Este 0 -- -- 78
2020-11-27 08:00:00 15.8 14 Este 30 Este 0 -- -- 77
2020-11-27 07:00:00 15.8 15 Este 32 Este 0 -- -- 79
2020-11-27 06:00:00 16.1 18 Este 31 Este 0 -- -- 80
2020-11-27 05:00:00 16.2 17 Este 27 Este 0 -- -- 83
2020-11-27 04:00:00 16 16 Este 26 Este 0 -- -- 85
2020-11-27 03:00:00 16.1 12 Este 26 Este 0 -- -- 85
2020-11-27 02:00:00 15.9 12 Sudeste 28 Este 0 -- -- 85
2020-11-27 01:00:00 15.8 15 Este 28 Sudeste 0 -- -- 84
2020-11-27 00:00:00 16 17 Sudeste 34 Este 0 -- -- 84
2020-11-26 23:00:00 16 19 Sudeste 33 Este 0 -- -- 85
2020-11-26 22:00:00 15.7 10 Sudeste 30 Este 0 -- -- 85
2020-11-26 21:00:00 16.1 14 Este 26 Este 0 -- -- 83
2020-11-26 20:00:00 16.6 16 Este 26 Este 0 -- -- 80
2020-11-26 19:00:00 16.3 8 Sudeste 22 Este 0 -- -- 80
2020-11-26 18:00:00 16.4 10 Este 17 Este 0 -- -- 76
2020-11-26 17:00:00 17 8 Sudeste 33 Este 0 -- -- 73
2020-11-26 16:00:00 17.7 19 Este 33 Este 0 -- -- 71
2020-11-26 15:00:00 18.8 22 Este 39 Este 0 -- -- 65
2020-11-26 14:00:00 19.4 28 Este 40 Este 0 -- -- 64
2020-11-26 13:00:00 18.9 26 Este 42 Este 0 -- -- 64
2020-11-26 12:00:00 19.3 19 Sudeste 43 Este 0 -- -- 63
2020-11-26 11:00:00 19.4 21 Sudeste 42 Este 0 -- -- 65
2020-11-26 10:00:00 17.5 26 Este 44 Este 0 -- -- 72
2020-11-26 09:00:00 16.7 10 Sudeste 25 Sudeste 0 -- -- 76
2020-11-26 08:00:00 15 14 Sudeste 28 Sudeste 0 -- -- 82
2020-11-26 07:00:00 14.8 11 Sudeste 24 Sudeste 0 -- -- 83
2020-11-26 06:00:00 15 13 Sudeste 22 Sudeste 0 -- -- 83
2020-11-26 05:00:00 15 10 Sudeste 19 Sudeste 0 -- -- 83
2020-11-26 04:00:00 15 14 Sudeste 20 Sudeste 0 -- -- 83
2020-11-26 03:00:00 15 11 Sudeste 18 Sur 0 -- -- 84
2020-11-26 02:00:00 15.2 10 Sudeste 22 Sudeste 0 -- -- 84
2020-11-26 01:00:00 15.3 12 Sudeste 21 Sudeste 0 -- -- 84
2020-11-26 00:00:00 15.7 12 Sudeste 35 Sudeste 0 -- -- 82
2020-11-25 23:00:00 16.2 19 Sudeste 39 Este 0 -- -- 81
2020-11-25 22:00:00 16.1 21 Este 35 Este 0 -- -- 82
2020-11-25 21:00:00 15.7 17 Este 35 Este 0 -- -- 82
2020-11-25 20:00:00 15.8 19 Este 35 Sudeste 0 -- -- 79
2020-11-25 19:00:00 15.8 13 Este 24 Este 0 -- -- 74
2020-11-25 18:00:00 15.7 6 Este 17 Sudeste 0 -- -- 73
2020-11-25 17:00:00 16.5 8 Sudeste 22 Sudeste 0 -- -- 67
2020-11-25 16:00:00 17.2 15 Sudeste 26 Sudeste 0 -- -- 61
2020-11-25 15:00:00 18.5 14 Sudeste 24 Sudeste 0 -- -- 50
2020-11-25 14:00:00 18.8 14 Sudeste 27 Sudeste 0 -- -- 49
2020-11-25 13:00:00 -- -- -- -- -- -- -- -- --
2020-11-25 12:00:00 17.3 13 Sudeste 29 Sudeste 0 -- -- 59
2020-11-25 11:00:00 17.5 11 Sudeste 21 Sudeste 0 -- -- 62
2020-11-25 10:00:00 16 13 Sudeste 19 Sudeste 0 -- -- 66
2020-11-25 09:00:00 13.8 8 Sur 14 Sudeste 0 -- -- 70
2020-11-25 08:00:00 12.9 8 Sudeste 11 Sudeste 0 -- -- 70
2020-11-25 07:00:00 12.9 8 Sudeste 13 Sudeste 0 -- -- 72
2020-11-25 06:00:00 12.7 10 Sudeste 14 Sudeste 0 -- -- 72
2020-11-25 05:00:00 12.6 5 Sudeste 12 Sudeste 0 -- -- 71
2020-11-25 04:00:00 12.9 4 Sur 11 Sudeste 0 -- -- 70
2020-11-25 03:00:00 12.6 5 Sur 13 Sudeste 0 -- -- 73
2020-11-25 02:00:00 12 6 Sudeste 8 Sudeste 0 -- -- 76
2020-11-25 01:00:00 11.1 3 Sur 6 Sudeste 0 -- -- 78
2020-11-25 00:00:00 11.2 4 Sur 7 Sudeste 0 -- -- 77
2020-11-24 23:00:00 11.1 4 Sur 8 Sudeste 0 -- -- 78
2020-11-24 22:00:00 11.8 4 Sur 8 Sur 0 -- -- 76
2020-11-24 21:00:00 10.8 3 Sudoeste 6 Sur 0 -- -- 76
2020-11-24 20:00:00 12 4 Sur 8 Sur 0 -- -- 73
2020-11-24 19:00:00 12.8 6 Sur 9 Sur 0 -- -- 70
2020-11-24 18:00:00 13.6 8 Sur 12 Sudoeste 0 -- -- 70
2020-11-24 17:00:00 14.9 8 Sudoeste 18 Sur 0 -- -- 64
2020-11-24 16:00:00 16.5 14 Sur 25 Sudoeste 0 -- -- 57
2020-11-24 15:00:00 17.3 14 Sudoeste 28 Sur 0 -- -- 52
2020-11-24 14:00:00 17.7 16 Sudoeste 31 Sudoeste 0 -- -- 51
2020-11-24 13:00:00 17.1 20 Sudoeste 31 Sudoeste 0 -- -- 54
2020-11-24 12:00:00 17.2 18 Sudoeste 27 Sudoeste 0 -- -- 53
2020-11-24 11:00:00 16.7 15 Sudoeste 22 Oeste 0 -- -- 58
2020-11-24 10:00:00 15.3 12 Sudoeste 17 Sudoeste 0 -- -- 68
2020-11-24 09:00:00 12.3 6 Sudoeste 9 Sudoeste 0 -- -- 80
2020-11-24 08:00:00 11.1 7 Sudoeste 12 Sudoeste 0 -- -- 80
2020-11-24 07:00:00 10.9 8 Sudoeste 13 Sudoeste 0 -- -- 83
2020-11-24 06:00:00 10.9 11 Sur 13 Sur 0 -- -- 82
2020-11-24 05:00:00 10.6 10 Sur 13 Sur 0 -- -- 80
2020-11-24 04:00:00 10.5 5 Sudoeste 13 Sur 0 -- -- 78
2020-11-24 03:00:00 10.3 8 Sudoeste 11 Sur 0 -- -- 78
2020-11-24 02:00:00 10.1 5 Sur 8 Sur 0 -- -- 76
2020-11-24 01:00:00 10.1 5 Sudoeste 6 Sudoeste 0 -- -- 75
2020-11-24 00:00:00 9.9 4 Sudoeste 7 Sudoeste 0 -- -- 74
2020-11-23 23:00:00 10.1 5 Sudoeste 7 Sudoeste 0 -- -- 74
2020-11-23 22:00:00 10.1 4 Sudoeste 8 Sur 0 -- -- 74
2020-11-23 21:00:00 10.1 3 Sudoeste 5 Sudoeste 0 -- -- 73
2020-11-23 20:00:00 10.2 5 Sudoeste 6 Sudoeste 0 -- -- 73
2020-11-23 19:00:00 10.2 4 Sur 5 Sur 0 -- -- 69
2020-11-23 18:00:00 11.8 0 Calma 8 Norte 0 -- -- 65
2020-11-23 17:00:00 13.6 6 Norte 12 Norte 0 -- -- 59
2020-11-23 16:00:00 14.8 11 Norte 21 Nordeste 0 -- -- 55
2020-11-23 15:00:00 15.3 10 Nordeste 19 Norte 0 -- -- 53
2020-11-23 14:00:00 15.9 8 Norte 17 Norte 0 -- -- 50
2020-11-23 13:00:00 15.7 10 Norte 20 Nordeste 0 -- -- 53
2020-11-23 12:00:00 15 12 Norte 21 Nordeste 0 -- -- 55
2020-11-23 11:00:00 15 13 Nordeste 22 Nordeste 0 -- -- 59
2020-11-23 10:00:00 15 10 Nordeste 19 Nordeste 0 -- -- 54
2020-11-23 09:00:00 12.7 10 Norte 21 Norte 0 -- -- 63
2020-11-23 08:00:00 11.7 5 Norte 9 Norte 0 -- -- 69
2020-11-23 07:00:00 11 3 Norte 5 Norte 0 -- -- 69
2020-11-23 06:00:00 10.1 2 Oeste 3 Oeste 0 -- -- 70
2020-11-23 05:00:00 10 0 Calma 4 Noroeste 0 -- -- 71
2020-11-23 04:00:00 9.9 3 Oeste 5 Oeste 0 -- -- 74
2020-11-23 03:00:00 9.9 2 Oeste 6 Sudoeste 0 -- -- 72
2020-11-23 02:00:00 9.8 2 Oeste 4 Noroeste 0 -- -- 72
2020-11-23 01:00:00 10.6 0 Calma 4 Nordeste 0 -- -- 72
2020-11-23 00:00:00 10.2 4 Oeste 5 Oeste 0 -- -- 70
2020-11-22 23:00:00 11.5 0 Calma 12 Nordeste 0 -- -- 65
2020-11-22 22:00:00 12.3 6 Nordeste 17 Nordeste 0 -- -- 62
2020-11-22 21:00:00 13 9 Nordeste 19 Nordeste 0 -- -- 58
2020-11-22 20:00:00 13.3 12 Nordeste 19 Nordeste 0 -- -- 62
2020-11-22 19:00:00 13.4 12 Nordeste 23 Norte 0 -- -- 61
2020-11-22 18:00:00 13.7 17 Nordeste 26 Nordeste 0 -- -- 61
2020-11-22 17:00:00 14.2 14 Nordeste 32 Nordeste 0 -- -- 57
2020-11-22 16:00:00 14.7 24 Nordeste 38 Nordeste 0 -- -- 55
2020-11-22 15:00:00 15.2 25 Nordeste 38 Nordeste 0 -- -- 52
2020-11-22 14:00:00 15.4 26 Nordeste 39 Nordeste 0 -- -- 57
2020-11-22 13:00:00 15.2 20 Nordeste 36 Nordeste 0 -- -- 57
2020-11-22 12:00:00 15.1 23 Norte 40 Nordeste 0 -- -- 56
2020-11-22 11:00:00 14.7 25 Nordeste 43 Nordeste 0 -- -- 55
2020-11-22 10:00:00 14 24 Nordeste 35 Norte 0 -- -- 58
2020-11-22 09:00:00 13.7 22 Nordeste 40 Nordeste 0 -- -- 59
2020-11-22 08:00:00 13.3 20 Nordeste 39 Nordeste 0 -- -- 59
2020-11-22 07:00:00 13.3 22 Norte 35 Norte 0 -- -- 61
2020-11-22 06:00:00 13.4 20 Norte 32 Norte 0 -- -- 61
2020-11-22 05:00:00 13.6 18 Norte 34 Nordeste 0 -- -- 64
2020-11-22 04:00:00 13.3 18 Norte 36 Nordeste 0 -- -- 64
2020-11-22 03:00:00 13.3 18 Norte 37 Nordeste 0 -- -- 60
2020-11-22 02:00:00 13.3 23 Nordeste 39 Norte 0 -- -- 57
2020-11-22 01:00:00 13.6 20 Nordeste 40 Nordeste 0 -- -- 57
2020-11-22 00:00:00 13.8 21 Norte 38 Norte 0 -- -- 57
2020-11-21 23:00:00 13.7 19 Norte 45 Norte 0 -- -- 55
2020-11-21 22:00:00 13.6 19 Nordeste 45 Nordeste 0 -- -- 55
2020-11-21 21:00:00 13.7 30 Nordeste 51 Nordeste 0 -- -- 49
2020-11-21 20:00:00 13.7 29 Nordeste 50 Nordeste 0 -- -- 53
2020-11-21 19:00:00 13.5 24 Norte 47 Norte 0 -- -- 56
2020-11-21 18:00:00 13.6 24 Norte 44 Nordeste 0 -- -- 56
2020-11-21 17:00:00 14 24 Norte 45 Nordeste 0 -- -- 56
2020-11-21 16:00:00 14.8 23 Nordeste 42 Nordeste 0 -- -- 54
2020-11-21 15:00:00 15.1 24 Norte 41 Nordeste 0 -- -- 54
2020-11-21 14:00:00 15.6 25 Nordeste 41 Norte 0 -- -- 60
2020-11-21 13:00:00 14.7 24 Norte 38 Norte 0 -- -- 69
2020-11-21 12:00:00 14.7 19 Norte 34 Nordeste 0 -- -- 69
2020-11-21 11:00:00 14.2 20 Norte 41 Norte 0 -- -- 69
2020-11-21 10:00:00 13.3 26 Norte 43 Norte 0 -- -- 69
2020-11-21 09:00:00 13 26 Norte 41 Norte 0 -- -- 70
2020-11-21 08:00:00 12.3 27 Norte 42 Norte 0 -- -- 71
2020-11-21 07:00:00 12 26 Norte 43 Norte 0 -- -- 70
2020-11-21 06:00:00 12.1 30 Norte 46 Norte 0 -- -- 68
2020-11-21 05:00:00 12.1 30 Norte 55 Norte 0 -- -- 68
2020-11-21 04:00:00 12 26 Norte 51 Norte 0 -- -- 69
2020-11-21 03:00:00 12 24 Norte 45 Norte 0 -- -- 68
2020-11-21 02:00:00 12 24 Norte 48 Norte 0 -- -- 69
2020-11-21 01:00:00 12 23 Norte 53 Norte 0 -- -- 69
2020-11-21 00:00:00 11.9 29 Norte 59 Norte 0 -- -- 67
2020-11-20 23:00:00 12 30 Norte 60 Norte 0 -- -- 65
2020-11-20 22:00:00 12.4 35 Norte 67 Norte 0 -- -- 63
2020-11-20 21:00:00 12.3 35 Norte 61 Norte 0 -- -- 62
2020-11-20 20:00:00 12.2 38 Norte 67 Norte 0 -- -- 61
2020-11-20 19:00:00 12.3 45 Norte 66 Norte 0 -- -- 53
2020-11-20 18:00:00 12.5 44 Norte 69 Norte 0 -- -- 53
2020-11-20 17:00:00 12.9 41 Norte 74 Norte 0 -- -- 49
2020-11-20 16:00:00 13.6 42 Norte 68 Norte 0 -- -- 50
2020-11-20 15:00:00 14.2 39 Norte 68 Norte 0 -- -- 49
2020-11-20 14:00:00 14.9 46 Norte 72 Norte 0 -- -- 47
2020-11-20 13:00:00 14.7 47 Norte 68 Norte 0 -- -- 45
2020-11-20 12:00:00 14.7 42 Norte 68 Norte 0 -- -- 47
2020-11-20 11:00:00 14.1 45 Norte 76 Norte 0 -- -- 52
2020-11-20 10:00:00 13.6 39 Norte 73 Norte 0 -- -- 55
2020-11-20 09:00:00 13.5 40 Norte 64 Nordeste 0 -- -- 56
2020-11-20 08:00:00 13.4 36 Norte 67 Norte 0 -- -- 58
2020-11-20 07:00:00 13.4 37 Norte 62 Norte 0 -- -- 57
2020-11-20 06:00:00 14 33 Norte 62 Norte 0 -- -- 56
2020-11-20 05:00:00 14.2 42 Norte 65 Norte 0 -- -- 53
2020-11-20 04:00:00 14.1 25 Norte 53 Norte 0 -- -- 60
2020-11-20 03:00:00 14.3 28 Norte 52 Norte 0 -- -- 61
2020-11-20 02:00:00 14.7 30 Norte 52 Norte 0 -- -- 59
2020-11-20 01:00:00 14.9 28 Norte 53 Norte 0 -- -- 57
2020-11-20 00:00:00 15.5 28 Norte 48 Norte 0 -- -- 58
2020-11-19 23:00:00 16 26 Norte 42 Norte 0 -- -- 68
2020-11-19 22:00:00 16 14 Norte 25 Norte 0 -- -- 82
2020-11-19 21:00:00 16.2 8 Noroeste 22 Noroeste 0 -- -- 82
2020-11-19 20:00:00 17 15 Norte 25 Norte 0 -- -- 78
2020-11-19 19:00:00 17.1 17 Norte 31 Norte 0 -- -- 79
2020-11-19 18:00:00 16.5 13 Norte 21 Norte 0 -- -- 80
2020-11-19 17:00:00 17.5 13 Norte 22 Noroeste 0 -- -- 78
2020-11-19 16:00:00 18.5 13 Noroeste 28 Norte 0 -- -- 73
2020-11-19 15:00:00 18.9 14 Norte 23 Norte 0 -- -- 70
2020-11-19 14:00:00 19.5 10 Noroeste 22 Norte 0 -- -- 67
2020-11-19 13:00:00 18.6 12 Norte 25 Noroeste 0 -- -- 71
2020-11-19 12:00:00 18.1 15 Norte 24 Noroeste 0 -- -- 72
2020-11-19 11:00:00 16.7 14 Norte 20 Norte 0 -- -- 81
2020-11-19 10:00:00 16 3 Norte 6 Norte 0 -- -- 89
2020-11-19 09:00:00 14.8 0 Calma 3 Norte 0 -- -- 92
2020-11-19 08:00:00 12.3 0 Calma 3 Oeste 0.2 -- -- 95
2020-11-19 07:00:00 12 3 Noroeste 5 Oeste 0 -- -- 96
2020-11-19 06:00:00 12.2 0 Calma 2 Sudoeste 0 -- -- 94
2020-11-19 05:00:00 12.7 2 Oeste 4 Sudoeste 0 -- -- 94
2020-11-19 04:00:00 12.6 -- -- -- -- 0 -- -- 93
2020-11-19 03:00:00 12.6 2 Sudoeste 5 Oeste 0 -- -- 94
2020-11-19 02:00:00 12.2 2 Oeste 4 Sudoeste 0 -- -- 92
2020-11-19 01:00:00 12.5 3 Sudoeste 5 Sudoeste 0 -- -- 92
2020-11-19 00:00:00 12.3 3 Sudoeste 5 Sudoeste 0 -- -- 92
2020-11-18 23:00:00 12.4 2 Oeste 3 Sur 0 -- -- 92
2020-11-18 22:00:00 12.8 3 Sur 5 Sudoeste 0 -- -- 90
2020-11-18 21:00:00 12.2 5 Oeste -- -- 0 -- -- 91
2020-11-18 20:00:00 12.6 4 Sudoeste 5 Sudoeste 0 -- -- 89
2020-11-18 19:00:00 13.5 2 Sudoeste 3 Sudoeste 0 -- -- 86
2020-11-18 18:00:00 15 0 Calma 9 Nordeste 0 -- -- 79
2020-11-18 17:00:00 17.1 5 Norte 12 Norte 0 -- -- 73
2020-11-18 16:00:00 18.3 8 Norte 16 Norte 0 -- -- 68
2020-11-18 15:00:00 18.7 10 Norte 16 Norte 0 -- -- 68
2020-11-18 14:00:00 19.3 9 Norte 19 Nordeste 0 -- -- 67
2020-11-18 13:00:00 19.1 9 Norte 19 Norte 0 -- -- 67
2020-11-18 12:00:00 18.7 9 Norte 15 Norte 0 -- -- 67
2020-11-18 11:00:00 18.6 4 Nordeste 10 Nordeste 0 -- -- 76
2020-11-18 10:00:00 17.5 2 Este 4 Sudeste 0 -- -- 91
2020-11-18 09:00:00 14.9 0 Calma -- -- 0 -- -- 94
2020-11-18 08:00:00 12.6 2 Sur 4 Sur 0 -- -- 96
2020-11-18 07:00:00 12.8 0 Calma 3 Nordeste 0 -- -- 96
2020-11-18 06:00:00 12.7 0 Calma 4 Sudoeste 0 -- -- 94
2020-11-18 05:00:00 12.4 3 Sur 5 Sudeste 0 -- -- 94
2020-11-18 04:00:00 12 0 Calma 5 Noroeste 0 -- -- 92
2020-11-18 03:00:00 12.6 0 Calma 5 Norte 0 -- -- 92
2020-11-18 02:00:00 12.5 4 Norte 9 Norte 0 -- -- 89
2020-11-18 01:00:00 12.6 7 Norte 13 Norte 0 -- -- 88
2020-11-18 00:00:00 12.8 7 Norte 14 Norte 0 -- -- 85
2020-11-17 23:00:00 13.3 9 Norte 18 Norte 0 -- -- 81
2020-11-17 22:00:00 13.5 11 Norte 18 Norte 0 -- -- 81
2020-11-17 21:00:00 13.5 12 Norte 18 Norte 0 -- -- 77
2020-11-17 20:00:00 13.3 9 Norte 16 Norte 0 -- -- 75
2020-11-17 19:00:00 13.8 8 Norte 20 Norte 0 -- -- 73
2020-11-17 18:00:00 14.3 11 Norte 21 Norte 0 -- -- 72
2020-11-17 17:00:00 15.5 12 Norte 28 Norte 0 -- -- 69
2020-11-17 16:00:00 16.6 19 Norte 31 Norte 0 -- -- 66
2020-11-17 15:00:00 17.1 20 Norte 36 Norte 0 -- -- 59
2020-11-17 14:00:00 17 21 Norte 36 Norte 0 -- -- 60
2020-11-17 13:00:00 17 22 Norte 36 Norte 0 -- -- 59
2020-11-17 12:00:00 17.1 22 Norte 37 Norte 0 -- -- 53
2020-11-17 11:00:00 17 24 Norte 40 Norte 0 -- -- 55
2020-11-17 10:00:00 16.3 17 Norte 34 Norte 0 -- -- 67
2020-11-17 09:00:00 16.1 18 Norte 30 Norte 0 -- -- 67
2020-11-17 08:00:00 15.8 16 Norte 32 Noroeste 0 -- -- 71
2020-11-17 07:00:00 15.7 20 Norte 33 Norte 0 -- -- 72
2020-11-17 06:00:00 14.9 15 Norte 30 Norte 0 -- -- 73
2020-11-17 05:00:00 15.2 18 Norte 38 Norte 0 -- -- 70
2020-11-17 04:00:00 15.7 21 Norte 39 Norte 0 -- -- 67
2020-11-17 03:00:00 15.6 20 Norte 37 Norte 0 -- -- 65
2020-11-17 02:00:00 15.8 18 Norte 37 Norte 0 -- -- 63
2020-11-17 01:00:00 15.9 21 Norte 35 Norte 0 -- -- 62
2020-11-17 00:00:00 16.2 24 Norte 35 Norte 0 -- -- 62
2020-11-16 23:00:00 16.1 15 Norte 35 Norte 0 -- -- 62
2020-11-16 22:00:00 16.3 20 Norte 35 Norte 0 -- -- 62
2020-11-16 21:00:00 16.2 20 Norte 36 Norte 0 -- -- 66
2020-11-16 20:00:00 15.4 18 Norte 35 Norte 0 -- -- 71
2020-11-16 19:00:00 15.8 21 Norte 33 Norte 0 -- -- 69
2020-11-16 18:00:00 15.7 17 Norte 28 Norte 0 -- -- 69
2020-11-16 17:00:00 16.2 15 Norte 31 Nordeste 0 -- -- 65
2020-11-16 16:00:00 16.7 17 Norte 37 Nordeste 0 -- -- 62
2020-11-16 15:00:00 16.9 25 Norte 40 Norte 0 -- -- 60
2020-11-16 14:00:00 16.7 28 Norte 42 Nordeste 0 -- -- 63
2020-11-16 13:00:00 17.3 26 Nordeste 44 Norte 0 -- -- 60
2020-11-16 12:00:00 18.1 24 Norte 40 Norte 0 -- -- 62
2020-11-16 11:00:00 17.5 26 Norte 41 Nordeste 0 -- -- 66
2020-11-16 10:00:00 17.4 18 Norte 35 Norte 0 -- -- 77
2020-11-16 09:00:00 17.4 23 Norte 35 Norte 0 -- -- 84
2020-11-16 08:00:00 17.1 21 Norte 32 Norte 0 -- -- 86
2020-11-16 07:00:00 17.9 21 Norte 35 Norte 0 -- -- 84
2020-11-16 06:00:00 19.2 19 Oeste 34 Oeste 0 -- -- 81
2020-11-16 05:00:00 18.4 13 Sudoeste 23 Sudoeste 0 -- -- 86
2020-11-16 04:00:00 18.2 17 Sudoeste 27 Sudoeste 0 -- -- 87
2020-11-16 03:00:00 18.2 20 Sudoeste 28 Sudoeste 0 -- -- 87
2020-11-16 02:00:00 18.3 21 Sudoeste 35 Sudoeste 0 -- -- 83
2020-11-16 01:00:00 18.5 26 Sudoeste 33 Sudoeste 0 -- -- 78
2020-11-16 00:00:00 18.1 24 Sudoeste 33 Sudoeste 0 -- -- 83
2020-11-15 23:00:00 17.5 18 Sudoeste 31 Sudoeste 0 -- -- 82
2020-11-15 22:00:00 17.8 22 Sudoeste 31 Sudoeste 0 -- -- 79
2020-11-15 21:00:00 18 22 Sudoeste 32 Sudoeste 0 -- -- 78
2020-11-15 20:00:00 18.2 25 Sudoeste 37 Sudoeste 0 -- -- 80
2020-11-15 19:00:00 17.9 14 Sudoeste 26 Sudoeste 0 -- -- 85
2020-11-15 18:00:00 18 6 Sudoeste 18 Sudoeste 0 -- -- 81
2020-11-15 17:00:00 20.2 8 Sudoeste 21 Sudoeste 0 -- -- 72
2020-11-15 16:00:00 20.7 18 Sudoeste 28 Sudoeste 0 -- -- 75
2020-11-15 15:00:00 20.5 14 Sudoeste 27 Sudoeste 0 -- -- 76
2020-11-15 14:00:00 20.8 17 Sudoeste 27 Sudoeste 0 -- -- 72
2020-11-15 13:00:00 20.1 22 Sudoeste 32 Sudoeste 0 -- -- 73
2020-11-15 12:00:00 20.8 15 Sudoeste 26 Sudoeste 0 -- -- 71
2020-11-15 11:00:00 20.2 18 Sudoeste 26 Sudoeste 0 -- -- 70
2020-11-15 10:00:00 18.9 16 Sudoeste 22 Sudoeste 0 -- -- 85
2020-11-15 09:00:00 18 6 Sudoeste 12 Sudoeste 0 -- -- 92
2020-11-15 08:00:00 16.3 3 Sur 5 Sur 0 -- -- 93
2020-11-15 07:00:00 16.3 4 Sudoeste 6 Sur 0 -- -- 93
2020-11-15 06:00:00 16.3 5 Sur 6 Sur 0 -- -- 93
2020-11-15 05:00:00 16.7 4 Sudoeste 6 Sudoeste 0 -- -- 94
2020-11-15 04:00:00 16.3 4 Sudoeste 4 Oeste 0 -- -- 94
2020-11-15 03:00:00 16.8 3 Oeste 4 Oeste 0 -- -- 94
2020-11-15 02:00:00 16.5 3 Oeste 5 Oeste 0 -- -- 95
2020-11-15 01:00:00 16.5 2 Sudoeste 4 Sudoeste 0 -- -- 94
2020-11-15 00:00:00 16.4 0 Calma 3 Sudeste 0 -- -- 94
2020-11-14 23:00:00 16.3 2 Sudoeste 6 Oeste 0 -- -- 94
2020-11-14 22:00:00 16.4 2 Sudoeste 3 Sur 0 -- -- 93
2020-11-14 21:00:00 16.7 3 Oeste 4 Sudoeste 0 -- -- 92
2020-11-14 20:00:00 17.1 0 Calma 5 Oeste 0 -- -- 91
2020-11-14 19:00:00 17.2 3 Oeste 4 Oeste 0 -- -- 89
2020-11-14 18:00:00 18.3 0 Calma 10 Este 0 -- -- 86
2020-11-14 17:00:00 19.1 5 Nordeste 10 Nordeste 0 -- -- 82
2020-11-14 16:00:00 19.9 6 Norte 15 Nordeste 0 -- -- 79
2020-11-14 15:00:00 20.6 12 Nordeste 15 Nordeste 0 -- -- 75
2020-11-14 14:00:00 21.2 6 Nordeste 13 Nordeste 0 -- -- 71
2020-11-14 13:00:00 23 5 Sudeste 14 Este 0 -- -- 64
2020-11-14 12:00:00 21.5 8 Este 18 Este 0 -- -- 70
2020-11-14 11:00:00 21 11 Sudeste 24 Este 0 -- -- 75
2020-11-14 10:00:00 19.3 8 Este 17 Este 0 -- -- 88
2020-11-14 09:00:00 18 4 Norte 8 Norte 0 -- -- 92
2020-11-14 08:00:00 16.7 4 Norte 6 Nordeste 0 -- -- 93
2020-11-14 07:00:00 16.9 3 Nordeste 8 Nordeste 0 -- -- 94
2020-11-14 06:00:00 16.2 3 Oeste 6 Oeste 0 -- -- 94
2020-11-14 05:00:00 16.4 3 Noroeste 9 Oeste 0 -- -- 92
2020-11-14 04:00:00 16.5 0 Calma 13 Este 0 -- -- 91
2020-11-14 03:00:00 16.6 4 Sur 9 Sudeste 0 -- -- 93
2020-11-14 02:00:00 16.4 2 Oeste 5 Nordeste 0 -- -- 93
2020-11-14 01:00:00 16.5 3 Norte 6 Norte 0 -- -- 92
2020-11-14 00:00:00 15.9 3 Norte 6 Nordeste 0 -- -- 92
2020-11-13 23:00:00 15.4 4 Norte 6 Norte 0 -- -- 92
2020-11-13 22:00:00 15.5 2 Nordeste 5 Nordeste 0 -- -- 90
2020-11-13 21:00:00 16.3 3 Nordeste 7 Nordeste 0 -- -- 89
2020-11-13 20:00:00 15.8 4 Norte 7 Norte 0 -- -- 90
2020-11-13 19:00:00 16.5 2 Norte 5 Sudeste 0 -- -- 87
2020-11-13 18:00:00 17.6 0 Calma 10 Este 0 -- -- 82
2020-11-13 17:00:00 18.9 9 Este 22 Este 0 -- -- 74
2020-11-13 16:00:00 20.4 16 Este 23 Este 0 -- -- 69
2020-11-13 15:00:00 21.1 12 Este 22 Este 0 -- -- 64
2020-11-13 14:00:00 21.9 6 Este 19 Nordeste 0 -- -- 60
2020-11-13 13:00:00 22.3 8 Este 19 Este 0 -- -- 61
2020-11-13 12:00:00 21.2 11 Este 17 Este 0 -- -- 67
2020-11-13 11:00:00 20.1 10 Sudeste 19 Sudeste 0 -- -- 72
2020-11-13 10:00:00 18.9 8 Este 14 Este 0 -- -- 82
2020-11-13 09:00:00 17.1 6 Sudeste 11 Sur 0 -- -- 89
2020-11-13 08:00:00 15.1 3 Sur 6 Sudeste 0 -- -- 93
2020-11-13 07:00:00 15.4 3 Sur 9 Sudeste 0 -- -- 92
2020-11-13 06:00:00 15.4 5 Sur 12 Sudeste 0 -- -- 92
2020-11-13 05:00:00 15.7 9 Sudeste 12 Sudeste 0 -- -- 93
2020-11-13 04:00:00 15 5 Sur 7 Sur 0 -- -- 94
2020-11-13 03:00:00 15.7 4 Sudeste 10 Sur 0 -- -- 92
2020-11-13 02:00:00 15.6 7 Sur 10 Sur 0 -- -- 93
2020-11-13 01:00:00 14.7 4 Sur 8 Sudeste 0 -- -- 93
2020-11-13 00:00:00 14.2 2 Oeste 4 Oeste 0 -- -- 92
2020-11-12 23:00:00 14 3 Sudoeste 4 Oeste 0 -- -- 92
2020-11-12 22:00:00 13.5 3 Sur 8 Sur 0 -- -- 90
2020-11-12 21:00:00 14 4 Sur 5 Sur 0 -- -- 87
2020-11-12 20:00:00 14.4 0 Calma 4 Sudoeste 0 -- -- 87
2020-11-12 19:00:00 15.4 0 Calma 4 Norte 0 -- -- 81
2020-11-12 18:00:00 16.5 3 Norte 8 Nordeste 0 -- -- 73
2020-11-12 17:00:00 18.7 5 Nordeste 8 Nordeste 0 -- -- 63
2020-11-12 16:00:00 19.5 4 Norte 6 Norte 0 -- -- 55
2020-11-12 15:00:00 18.6 5 Sudeste 12 Sudeste 0 -- -- 62
2020-11-12 14:00:00 17.7 11 Sudeste 17 Sudeste 0 -- -- 78
2020-11-12 13:00:00 18.2 6 Nordeste 14 Este 0 -- -- 72
2020-11-12 12:00:00 18.5 4 Nordeste 7 Nordeste 0 -- -- 87
2020-11-12 11:00:00 17.4 0 Calma 2 Norte 0 -- -- 91
2020-11-12 10:00:00 15.9 0 Calma 5 Sur 0 -- -- 92
2020-11-12 09:00:00 14.7 5 Sudeste 6 Sudeste 0 -- -- 92
2020-11-12 08:00:00 14.9 8 Oeste 11 Oeste 1.8 -- -- 92
2020-11-12 07:00:00 15.1 5 Sudoeste 14 Oeste 0.6 -- -- 90
2020-11-12 06:00:00 14.2 4 Sudoeste 12 Sudeste 0 -- -- 91
2020-11-12 05:00:00 14.2 4 Sur 9 Sudeste 0 -- -- 93
2020-11-12 04:00:00 12.8 3 Sudoeste 8 Sudeste 0 -- -- 92
2020-11-12 03:00:00 13.4 4 Sur 11 Sur 0 -- -- 91
2020-11-12 02:00:00 13.8 5 Sur 12 Sur 0 -- -- 89
2020-11-12 01:00:00 14 8 Sur 10 Sur 0 -- -- 89
2020-11-12 00:00:00 13.4 3 Sudoeste 6 Sudoeste 0 -- -- 90
2020-11-11 23:00:00 13 2 Oeste 8 Sur 0 -- -- 88
2020-11-11 22:00:00 13.8 4 Sur 6 Sur 0 -- -- 87
2020-11-11 21:00:00 13.1 4 Sur 12 Sudeste 0 -- -- 85
2020-11-11 20:00:00 13.6 3 Sur 4 Sur 0 -- -- 84
2020-11-11 19:00:00 15.1 2 Sur 6 Sudeste 0 -- -- 82
2020-11-11 18:00:00 16.3 5 Sudeste 8 Este 0 -- -- 76
2020-11-11 17:00:00 17 2 Este 8 Nordeste 0 -- -- 74
2020-11-11 16:00:00 17.4 6 Nordeste 14 Norte 0 -- -- 72
2020-11-11 15:00:00 19 8 Nordeste 15 Nordeste 0 -- -- 66
2020-11-11 14:00:00 19.3 10 Norte 17 Nordeste 0 -- -- 65
2020-11-11 13:00:00 19.3 9 Norte 17 Nordeste 0 -- -- 66
2020-11-11 12:00:00 18.3 9 Nordeste 18 Norte 0 -- -- 69
2020-11-11 11:00:00 18.7 8 Norte 18 Norte 0 -- -- 69
2020-11-11 10:00:00 17.4 13 Nordeste 17 Nordeste 0 -- -- 74
2020-11-11 09:00:00 16.7 3 Nordeste 5 Norte 0 -- -- 83
2020-11-11 08:00:00 13.8 0 Calma 8 Norte 0 -- -- 90
2020-11-11 07:00:00 13.6 0 Calma 3 Norte 0 -- -- 89
2020-11-11 06:00:00 13.5 3 Oeste 5 Oeste 0 -- -- 89
2020-11-11 05:00:00 14.3 3 Nordeste 8 Nordeste 0 -- -- 87
2020-11-11 04:00:00 14.6 4 Norte 11 Nordeste 0 -- -- 87
2020-11-11 03:00:00 14.7 7 Norte 10 Norte 0 -- -- 88
2020-11-11 02:00:00 15.2 5 Noroeste 8 Norte 0 -- -- 88
2020-11-11 01:00:00 15.4 6 Norte 8 Norte 0 -- -- 88
2020-11-11 00:00:00 15.8 2 Nordeste 19 Norte 0 -- -- 87
2020-11-10 23:00:00 16.5 12 Norte 19 Norte 0 -- -- 87
2020-11-10 22:00:00 15.9 5 Norte 10 Norte 0 -- -- 90
2020-11-10 21:00:00 15.9 4 Noroeste 12 Noroeste 0 -- -- 90
2020-11-10 20:00:00 15.9 6 Noroeste 10 Noroeste 0 -- -- 89
2020-11-10 19:00:00 15.9 4 Norte 10 Norte 0 -- -- 88
2020-11-10 18:00:00 16.2 7 Norte 19 Norte 0 -- -- 86
2020-11-10 17:00:00 17.1 12 Norte 23 Norte 0 -- -- 82
2020-11-10 16:00:00 17.5 17 Norte 25 Norte 0 -- -- 80
2020-11-10 15:00:00 18.1 14 Norte 25 Norte 0 -- -- 76
2020-11-10 14:00:00 17.9 18 Norte 26 Norte 0 -- -- 76
2020-11-10 13:00:00 18.3 17 Norte 26 Norte 0 -- -- 74
2020-11-10 12:00:00 18.8 15 Noroeste 23 Norte 0 -- -- 75
2020-11-10 11:00:00 18.7 14 Norte 24 Norte 0 -- -- 76
2020-11-10 10:00:00 17.5 14 Norte 21 Noroeste 0 -- -- 88
2020-11-10 09:00:00 16.6 5 Norte 8 Norte 0 -- -- 92
2020-11-10 08:00:00 15.1 4 Noroeste 7 Norte 0 -- -- 95
2020-11-10 07:00:00 14.6 4 Norte 7 Noroeste 0 -- -- 95
2020-11-10 06:00:00 14.6 5 Norte 8 Norte 0 -- -- 95
2020-11-10 05:00:00 14.7 4 Norte 6 Norte 0 -- -- 95
2020-11-10 04:00:00 15 3 Norte 4 Norte 0 -- -- 95
2020-11-10 03:00:00 14.9 4 Noroeste 6 Noroeste 0 -- -- 95
2020-11-10 02:00:00 15.3 0 Calma 5 Noroeste 0 -- -- 95
2020-11-10 01:00:00 15.6 4 Noroeste 6 Noroeste 0 -- -- 95
2020-11-10 00:00:00 15.6 4 Norte 5 Norte 0 -- -- 94
2020-11-09 23:00:00 15.9 4 Norte 5 Norte 0 -- -- 94
2020-11-09 22:00:00 16 0 Calma 2 Norte 0 -- -- 94
2020-11-09 21:00:00 16.1 0 Calma 3 Noroeste 0 -- -- 93
2020-11-09 20:00:00 16.3 0 Calma 4 Norte 0 -- -- 91
2020-11-09 19:00:00 17 3 Norte 5 Norte 0 -- -- 89
2020-11-09 18:00:00 18.1 5 Nordeste 10 Norte 0 -- -- 86
2020-11-09 17:00:00 19 7 Norte 14 Norte 0 -- -- 82
2020-11-09 16:00:00 19.8 9 Norte 14 Norte 0 -- -- 78
2020-11-09 15:00:00 20.8 9 Norte 14 Nordeste 0 -- -- 74
2020-11-09 14:00:00 21.7 6 Nordeste 12 Norte 0 -- -- 72
2020-11-09 13:00:00 20.9 4 Nordeste 13 Nordeste 0 -- -- 86
2020-11-09 12:00:00 19.3 8 Este 13 Este 0 -- -- 91
2020-11-09 11:00:00 18.8 7 Nordeste 12 Nordeste 0 -- -- 94
2020-11-09 10:00:00 18.3 3 Norte 4 Norte 0 -- -- 95
2020-11-09 09:00:00 16.5 0 Calma 4 Oeste 0.2 -- -- 98
2020-11-09 08:00:00 15.3 0 Calma 6 Oeste 0 -- -- 98
2020-11-09 07:00:00 14.7 3 Oeste 6 Oeste 0 -- -- 97
2020-11-09 06:00:00 15 2 Sudoeste 5 Sudoeste 0 -- -- 97
2020-11-09 05:00:00 15 2 Oeste 5 Sudeste 0 -- -- 97
2020-11-09 04:00:00 16.1 0 Calma 5 Sudeste 0 -- -- 96
2020-11-09 03:00:00 15.9 3 Sur 6 Sudoeste 0 -- -- 97
2020-11-09 02:00:00 14.9 2 Sudoeste 4 Sudoeste 0.2 -- -- 96
2020-11-09 01:00:00 15.4 3 Oeste 4 Oeste 0 -- -- 96
2020-11-09 00:00:00 15.5 0 Calma 3 Sur 0 -- -- 96
2020-11-08 23:00:00 15.7 0 Calma 4 Sudoeste 0 -- -- 94
2020-11-08 22:00:00 16 2 Sudoeste 3 Sudoeste 0 -- -- 94
2020-11-08 21:00:00 16.3 0 Calma 3 Norte 0 -- -- 93
2020-11-08 20:00:00 15.7 0 Calma 4 Norte 0 -- -- 91
2020-11-08 19:00:00 17.1 0 Calma 4 Oeste 0 -- -- 90
2020-11-08 18:00:00 17.8 2 Noroeste 6 Noroeste 0 -- -- 89
2020-11-08 17:00:00 18.9 6 Norte 12 Norte 0 -- -- 84
2020-11-08 16:00:00 22.2 2 Este 17 Sudoeste 0 -- -- 70
2020-11-08 15:00:00 22.3 7 Noroeste 18 Sudoeste 0 -- -- 71
2020-11-08 14:00:00 23.1 10 Sudoeste 20 Sudeste 0 -- -- 45
2020-11-08 13:00:00 22.7 12 Sudoeste 18 Sudoeste 0 -- -- 57
2020-11-08 12:00:00 21.8 6 Sur 13 Sur 0 -- -- 68
2020-11-08 11:00:00 19.8 9 Sur 14 Sur 0 -- -- 82
2020-11-08 10:00:00 19.1 6 Sudeste 10 Sur 0 -- -- 90
2020-11-08 09:00:00 17.5 2 Sur 5 Sur 0 -- -- 95
2020-11-08 08:00:00 15.8 2 Sur 4 Sur 0 -- -- 96
2020-11-08 07:00:00 16 3 Sur 5 Sudoeste 0 -- -- 93
2020-11-08 06:00:00 16.2 3 Sur 6 Sudeste 0 -- -- 94
2020-11-08 05:00:00 15.8 5 Sudoeste 10 Sur 0 -- -- 93
2020-11-08 04:00:00 16.2 8 Sur 13 Sur 0 -- -- 91
2020-11-08 03:00:00 16.5 9 Sudoeste 15 Sudoeste 0 -- -- 91
2020-11-08 02:00:00 16.9 9 Sudoeste 17 Sudoeste 0 -- -- 91
2020-11-08 01:00:00 17.3 13 Sur 16 Sudoeste 0 -- -- 92
2020-11-08 00:00:00 17.6 11 Sur 16 Sudoeste 0 -- -- 92
2020-11-07 23:00:00 17.9 11 Sudoeste 15 Sudoeste 0 -- -- 93
2020-11-07 22:00:00 18.4 10 Sur 15 Sur 0 -- -- 91
2020-11-07 21:00:00 18.3 9 Sur 18 Sur 0 -- -- 91
2020-11-07 20:00:00 19 11 Sur 25 Sur 0 -- -- 89
2020-11-07 19:00:00 19.2 15 Sur 27 Sur 0 -- -- 86
2020-11-07 18:00:00 19.7 19 Sur 32 Sur 0 -- -- 79
2020-11-07 17:00:00 20.7 17 Sur 28 Sur 0 -- -- 68
2020-11-07 16:00:00 19.9 13 Sudeste 27 Sudeste 0 -- -- 76
2020-11-07 15:00:00 18.7 14 Sur 24 Sudeste 0 -- -- 80
2020-11-07 14:00:00 18.1 8 Sur 28 Sur 0.4 -- -- 84
2020-11-07 13:00:00 18.3 13 Sur 35 Sudoeste 0.2 -- -- 78
2020-11-07 12:00:00 21.1 19 Sudoeste 37 Sudoeste 0 -- -- 77
2020-11-07 11:00:00 21.5 21 Sur 45 Sur 0 -- -- 77
2020-11-07 10:00:00 20.4 32 Sur 48 Sur 0 -- -- 86
2020-11-07 09:00:00 19.5 21 Sur 39 Sudeste 0 -- -- 88
2020-11-07 08:00:00 19.2 26 Sudeste 43 Sudeste 0 -- -- 88
2020-11-07 07:00:00 19.1 22 Sur 44 Sudeste 0 -- -- 88
2020-11-07 06:00:00 19 30 Sudeste 48 Sudeste 0 -- -- 88
2020-11-07 05:00:00 18.8 28 Sudeste 45 Sudeste 0 -- -- 89
2020-11-07 04:00:00 18.5 23 Sudeste 40 Sudeste 0 -- -- 89
2020-11-07 03:00:00 18.4 26 Sudeste 41 Sudeste 0 -- -- 89
2020-11-07 02:00:00 18.4 26 Sudeste 46 Sudeste 0 -- -- 88
2020-11-07 01:00:00 18.4 23 Sudeste 46 Sudeste 0 -- -- 86
2020-11-07 00:00:00 18.4 21 Sudeste 43 Sudeste 0 -- -- 87
2020-11-06 23:00:00 18.4 20 Sudeste 43 Este 0 -- -- 88
2020-11-06 22:00:00 18.5 23 Sudeste 45 Este 0 -- -- 87
2020-11-06 21:00:00 18.6 21 Sudeste 49 Este 0 -- -- 87
2020-11-06 20:00:00 18.8 23 Este 53 Sudeste 0 -- -- 85
2020-11-06 19:00:00 18.9 28 Este 49 Este 0 -- -- 85
2020-11-06 18:00:00 18.9 27 Este 45 Este 0 -- -- 84
2020-11-06 17:00:00 19.3 23 Sudeste 45 Sudeste 0 -- -- 81
2020-11-06 16:00:00 20.2 24 Sudeste 47 Sudeste 0 -- -- 78
2020-11-06 15:00:00 20.1 30 Este 55 Este 0 -- -- 77
2020-11-06 14:00:00 20.3 30 Este 51 Este 0 -- -- 76
2020-11-06 13:00:00 20.8 27 Sudeste 55 Este 0 -- -- 73
2020-11-06 12:00:00 20.8 30 Este 57 Este 0 -- -- 73
2020-11-06 11:00:00 20.2 30 Este 49 Este 0 -- -- 76
2020-11-06 10:00:00 19.9 28 Este 44 Este 0 -- -- 78
2020-11-06 09:00:00 19.5 21 Este 38 Este 0 -- -- 81
2020-11-06 08:00:00 18.9 17 Este 30 Este 0 -- -- 84
2020-11-06 07:00:00 18.7 17 Este 39 Este 0 -- -- 85
2020-11-06 06:00:00 18.6 17 Este 28 Este 0 -- -- 84
2020-11-06 05:00:00 18.6 14 Este 32 Este 0 -- -- 83
2020-11-06 04:00:00 18.6 15 Este 31 Este 0 -- -- 83
2020-11-06 03:00:00 18.5 10 Sudeste 29 Sudeste 0 -- -- 85
2020-11-06 02:00:00 18.6 21 Este 46 Este 0 -- -- 84
2020-11-06 01:00:00 18.4 27 Este 50 Este 0 -- -- 83
2020-11-06 00:00:00 18.5 28 Este 48 Este 0 -- -- 82
2020-11-05 23:00:00 18.3 16 Este 39 Este 0 -- -- 82
2020-11-05 22:00:00 18.1 21 Este 38 Este 0 -- -- 82
2020-11-05 21:00:00 18.1 19 Este 33 Este 0 -- -- 81
2020-11-05 20:00:00 18.1 18 Este 31 Este 0 -- -- 80
2020-11-05 19:00:00 18.1 15 Este 30 Este 0 -- -- 81
2020-11-05 18:00:00 18.3 14 Este 32 Este 0 -- -- 80
2020-11-05 17:00:00 18.6 15 Este 28 Este 0 -- -- 78
2020-11-05 16:00:00 18.9 18 Este 31 Este 0 -- -- 75
2020-11-05 15:00:00 19.1 18 Este 34 Este 0 -- -- 72
2020-11-05 14:00:00 19.4 20 Este 36 Sudeste 0 -- -- 71
2020-11-05 13:00:00 19.8 21 Este 33 Este 0 -- -- 67
2020-11-05 12:00:00 20.6 20 Este 36 Este 0 -- -- 62
2020-11-05 11:00:00 19.9 19 Este 34 Nordeste 0 -- -- 67
2020-11-05 10:00:00 19.2 15 Este 30 Este 0 -- -- 74
2020-11-05 09:00:00 18.2 14 Este 22 Nordeste 0 -- -- 82
2020-11-05 08:00:00 17.5 12 Nordeste 21 Este 0 -- -- 83
2020-11-05 07:00:00 16.9 9 Nordeste 17 Nordeste 0 -- -- 85
2020-11-05 06:00:00 16.2 9 Nordeste 15 Nordeste 0 -- -- 83
2020-11-05 05:00:00 16 4 Nordeste 11 Nordeste 0 -- -- 82
2020-11-05 04:00:00 15.7 9 Nordeste 14 Nordeste 0 -- -- 83
2020-11-05 03:00:00 16.1 11 Nordeste 16 Este 0 -- -- 81
2020-11-05 02:00:00 16.6 10 Nordeste 21 Nordeste 0 -- -- 80
2020-11-05 01:00:00 16.3 9 Nordeste 19 Nordeste 0 -- -- 81
2020-11-05 00:00:00 15.8 14 Nordeste 20 Nordeste 0 -- -- 81